createdAt,value
2018-04-24T00:00:27.312Z,75.60
2018-04-24T00:02:55.688Z,75.70
2018-04-24T00:05:24.088Z,75.90
2018-04-24T00:07:52.472Z,75.80
2018-04-24T00:10:21.014Z,75.40
2018-04-24T00:12:49.400Z,75.60
2018-04-24T00:15:17.784Z,75.80
2018-04-24T00:17:50.757Z,75.80
2018-04-24T00:20:19.218Z,75.80
2018-04-24T00:22:47.572Z,76.10
2018-04-24T00:25:16.708Z,76.10
2018-04-24T00:27:45.145Z,76.00
2018-04-24T00:30:14.288Z,75.60
2018-04-24T00:32:42.660Z,75.60
2018-04-24T00:35:11.053Z,75.30
2018-04-24T00:37:39.433Z,75.30
2018-04-24T00:40:07.844Z,75.00
2018-04-24T00:42:36.990Z,75.10
2018-04-24T00:45:05.413Z,75.10
2018-04-24T00:47:34.561Z,75.00
2018-04-24T00:50:02.929Z,75.00
2018-04-24T00:52:31.329Z,75.20
2018-04-24T00:54:59.696Z,75.00
2018-04-24T00:57:28.088Z,75.00
2018-04-24T00:59:56.461Z,75.10
2018-04-24T01:02:24.861Z,75.00
2018-04-24T01:04:53.236Z,75.00
2018-04-24T01:07:21.841Z,74.60
2018-04-24T01:09:50.213Z,74.50
2018-04-24T01:12:20.104Z,74.00
2018-04-24T01:14:48.510Z,74.00
2018-04-24T01:17:16.899Z,74.40
2018-04-24T01:19:46.063Z,74.00
2018-04-24T01:22:14.433Z,74.00
2018-04-24T01:24:42.829Z,74.10
2018-04-24T01:27:11.200Z,74.10
2018-04-24T01:29:39.604Z,73.80
2018-04-24T01:32:07.976Z,73.80
2018-04-24T01:34:36.368Z,73.70
2018-04-24T01:37:05.505Z,73.70
2018-04-24T01:39:34.098Z,73.70
2018-04-24T01:42:02.464Z,73.80
2018-04-24T01:44:30.837Z,74.10
2018-04-24T01:46:59.233Z,74.00
2018-04-24T01:49:27.601Z,74.10
2018-04-24T01:51:55.996Z,74.00
2018-04-24T01:54:24.372Z,74.10
2018-04-24T01:56:52.793Z,74.40
2018-04-24T01:59:21.166Z,74.40
2018-04-24T02:01:49.544Z,74.20
2018-04-24T02:04:17.937Z,74.40
2018-04-24T02:06:47.075Z,74.60
2018-04-24T02:09:15.481Z,74.60
2018-04-24T02:11:43.856Z,74.80
2018-04-24T02:14:12.721Z,75.10
2018-04-24T02:16:41.088Z,75.20
2018-04-24T02:19:09.456Z,75.20
2018-04-24T02:21:37.848Z,75.40
2018-04-24T02:24:06.223Z,75.60
2018-04-24T02:26:34.609Z,75.70
2018-04-24T02:29:02.984Z,75.80
2018-04-24T02:31:31.889Z,76.00
2018-04-24T02:34:00.299Z,75.80
2018-04-24T02:36:28.752Z,75.80
2018-04-24T02:38:57.143Z,75.90
2018-04-24T02:41:25.516Z,76.00
2018-04-24T02:43:53.916Z,76.00
2018-04-24T02:46:22.280Z,75.90
2018-04-24T02:48:50.688Z,76.10
2018-04-24T02:51:19.827Z,76.20
2018-04-24T02:53:48.239Z,76.10
2018-04-24T02:56:16.614Z,76.00
2018-04-24T02:58:45.130Z,76.10
2018-04-24T03:01:15.157Z,76.30
2018-04-24T03:03:44.325Z,76.20
2018-04-24T03:06:12.723Z,76.10
2018-04-24T03:08:41.124Z,76.30
2018-04-24T03:11:09.564Z,76.10
2018-04-24T03:13:37.932Z,76.20
2018-04-24T03:16:06.316Z,77.00
2018-04-24T03:18:34.715Z,77.00
2018-04-24T03:21:03.859Z,77.00
2018-04-24T03:23:32.264Z,77.00
2018-04-24T03:26:00.645Z,77.00
2018-04-24T03:28:29.188Z,77.20
2018-04-24T03:30:57.666Z,77.30
2018-04-24T03:33:25.960Z,77.30
2018-04-24T03:35:54.360Z,77.20
2018-04-24T03:38:23.249Z,77.30
2018-04-24T03:40:51.680Z,77.00
2018-04-24T03:43:20.055Z,77.20
2018-04-24T03:45:48.477Z,77.40
2018-04-24T03:48:16.865Z,77.40
2018-04-24T03:50:45.233Z,77.50
2018-04-24T03:53:13.629Z,77.50
2018-04-24T03:55:41.997Z,77.30
2018-04-24T03:58:10.406Z,77.40
2018-04-24T04:00:39.549Z,77.40
2018-04-24T04:03:08.117Z,77.50
2018-04-24T04:05:36.488Z,77.20
2018-04-24T04:08:04.878Z,77.20
2018-04-24T04:10:33.269Z,77.20
2018-04-24T04:13:01.646Z,77.20
2018-04-24T04:15:30.057Z,77.30
2018-04-24T04:18:16.377Z,77.20
2018-04-24T04:21:03.293Z,77.10
2018-04-24T04:23:50.229Z,77.30
2018-04-24T04:26:18.631Z,77.30
2018-04-24T04:28:47.001Z,77.50
2018-04-24T04:31:16.609Z,77.30
2018-04-24T04:33:44.978Z,77.20
2018-04-24T04:36:13.475Z,77.30
2018-04-24T04:38:41.855Z,77.20
2018-04-24T04:41:10.237Z,77.40
2018-04-24T04:43:38.632Z,77.70
2018-04-24T04:46:07.005Z,77.50
2018-04-24T04:48:35.397Z,77.50
2018-04-24T04:51:03.789Z,77.70
2018-04-24T04:53:33.349Z,78.10
2018-04-24T04:56:01.737Z,78.00
2018-04-24T04:58:30.132Z,77.70
2018-04-24T05:00:58.536Z,77.60
2018-04-24T05:03:27.679Z,77.20
2018-04-24T05:05:56.110Z,77.20
2018-04-24T05:08:25.284Z,77.10
2018-04-24T05:10:53.694Z,77.10
2018-04-24T05:13:22.843Z,77.60
2018-04-24T05:15:51.450Z,77.60
2018-04-24T05:18:19.839Z,77.20
2018-04-24T05:20:48.985Z,78.10
2018-04-24T05:23:17.388Z,77.40
2018-04-24T05:25:45.777Z,77.90
2018-04-24T05:28:14.282Z,76.70
2018-04-24T05:30:43.433Z,76.70
2018-04-24T05:33:12.105Z,76.60
2018-04-24T05:35:40.579Z,76.50
2018-04-24T05:38:08.897Z,76.00
2018-04-24T05:40:37.290Z,75.80
2018-04-24T05:43:05.672Z,75.70
2018-04-24T05:45:35.137Z,75.30
2018-04-24T05:48:03.520Z,75.30
2018-04-24T05:50:31.901Z,75.30
2018-04-24T05:53:00.326Z,74.70
2018-04-24T05:55:28.700Z,74.60
2018-04-24T05:57:57.880Z,74.10
2018-04-24T06:00:26.250Z,74.10
2018-04-24T06:02:55.436Z,73.80
2018-04-24T06:05:23.873Z,73.80
2018-04-24T06:07:52.477Z,73.50
2018-04-24T06:10:20.869Z,72.80
2018-04-24T06:12:49.262Z,73.00
2018-04-24T06:15:17.672Z,72.90
2018-04-24T06:17:46.809Z,72.70
2018-04-24T06:20:15.217Z,72.60
2018-04-24T06:22:43.605Z,72.10
2018-04-24T06:25:12.149Z,71.70
2018-04-24T06:27:40.529Z,72.80
2018-04-24T06:30:08.916Z,71.00
2018-04-24T06:32:37.324Z,71.00
2018-04-24T06:35:05.786Z,71.50
2018-04-24T06:37:34.192Z,71.20
2018-04-24T06:40:03.346Z,71.20
2018-04-24T06:42:31.759Z,71.20
2018-04-24T06:45:00.900Z,71.40
2018-04-24T06:47:29.279Z,71.30
2018-04-24T06:49:57.690Z,70.70
2018-04-24T06:52:26.084Z,69.10
2018-04-24T06:54:54.575Z,68.50
2018-04-24T06:57:22.897Z,67.40
2018-04-24T06:59:51.332Z,67.80
2018-04-24T07:02:20.472Z,65.80
2018-04-24T07:04:48.845Z,65.80
2018-04-24T07:07:17.233Z,65.40
2018-04-24T07:09:45.612Z,64.20
2018-04-24T07:12:14.008Z,63.60
2018-04-24T07:14:42.388Z,63.50
2018-04-24T07:17:11.057Z,63.60
2018-04-24T07:19:39.437Z,62.00
2018-04-24T07:22:07.888Z,62.60
2018-04-24T07:24:37.024Z,62.70
2018-04-24T07:27:05.403Z,62.40
2018-04-24T07:29:33.816Z,60.60
2018-04-24T07:32:02.196Z,60.00
2018-04-24T07:34:30.588Z,61.40
2018-04-24T07:36:59.733Z,59.10
2018-04-24T07:39:28.609Z,59.00
2018-04-24T07:41:56.990Z,58.50
2018-04-24T07:44:25.541Z,58.30
2018-04-24T07:46:54.027Z,58.40
2018-04-24T07:49:22.343Z,58.40
2018-04-24T07:51:50.743Z,59.60
2018-04-24T07:54:19.140Z,59.00
2018-04-24T07:56:48.321Z,58.50
2018-04-24T07:59:16.754Z,58.50
2018-04-24T08:01:45.876Z,56.80
2018-04-24T08:04:14.285Z,56.80
2018-04-24T08:06:43.430Z,55.60
2018-04-24T08:09:11.828Z,55.40
2018-04-24T08:11:40.201Z,54.70
2018-04-24T08:14:08.633Z,54.10
2018-04-24T08:16:37.863Z,54.10
2018-04-24T08:19:06.179Z,54.00
2018-04-24T08:21:34.577Z,54.90
2018-04-24T08:24:03.717Z,52.60
2018-04-24T08:26:32.111Z,52.50
2018-04-24T08:29:00.538Z,52.10
2018-04-24T08:31:29.820Z,52.80
2018-04-24T08:33:58.200Z,52.70
2018-04-24T08:36:26.613Z,53.20
2018-04-24T08:38:55.026Z,52.60
2018-04-24T08:41:23.408Z,52.50
2018-04-24T08:43:51.813Z,53.00
2018-04-24T08:46:20.201Z,52.50
2018-04-24T08:48:49.565Z,54.20
2018-04-24T08:51:17.948Z,53.50
2018-04-24T08:53:46.341Z,52.80
2018-04-24T08:56:14.749Z,53.10
2018-04-24T08:58:43.902Z,51.10
2018-04-24T09:01:12.306Z,50.90
2018-04-24T09:03:40.680Z,50.10
2018-04-24T09:06:09.091Z,50.70
2018-04-24T09:08:37.552Z,50.60
2018-04-24T09:11:05.907Z,49.00
2018-04-24T09:13:34.322Z,47.80
2018-04-24T09:16:03.457Z,47.70
2018-04-24T09:18:31.863Z,47.60
2018-04-24T09:21:00.245Z,47.70
2018-04-24T09:23:28.668Z,48.10
2018-04-24T09:25:57.040Z,49.10
2018-04-24T09:28:25.416Z,48.20
2018-04-24T09:30:53.824Z,48.80
2018-04-24T09:33:22.194Z,46.80
2018-04-24T09:35:50.693Z,46.70
2018-04-24T09:38:19.065Z,46.00
2018-04-24T09:40:47.669Z,45.60
2018-04-24T09:43:16.048Z,44.30
2018-04-24T09:45:44.443Z,44.60
2018-04-24T09:48:12.834Z,44.20
2018-04-24T09:50:41.968Z,46.40
2018-04-24T09:53:10.379Z,46.30
2018-04-24T09:55:38.755Z,45.90
2018-04-24T09:58:07.324Z,47.00
2018-04-24T10:00:36.681Z,45.80
2018-04-24T10:03:05.816Z,42.60
2018-04-24T10:05:34.205Z,42.50
2018-04-24T10:08:02.610Z,42.50
2018-04-24T10:10:31.004Z,41.20
2018-04-24T10:13:00.161Z,41.10
2018-04-24T10:15:28.582Z,41.00
2018-04-24T10:17:58.886Z,40.20
2018-04-24T10:20:27.465Z,40.10
2018-04-24T10:22:55.861Z,39.70
2018-04-24T10:25:24.229Z,40.80
2018-04-24T10:27:52.617Z,39.70
2018-04-24T10:30:20.988Z,38.40
2018-04-24T10:32:49.381Z,37.90
2018-04-24T10:35:18.516Z,37.60
2018-04-24T10:37:46.908Z,37.50
2018-04-24T10:40:15.308Z,37.40
2018-04-24T10:42:43.688Z,35.10
2018-04-24T10:45:12.854Z,35.10
2018-04-24T10:47:41.224Z,35.20
2018-04-24T10:50:09.651Z,34.60
2018-04-24T10:52:38.032Z,35.20
2018-04-24T10:55:06.655Z,35.20
2018-04-24T10:57:35.032Z,35.20
2018-04-24T11:00:03.424Z,36.90
2018-04-24T11:02:31.827Z,37.40
2018-04-24T11:05:00.204Z,38.30
2018-04-24T11:07:28.615Z,38.30
2018-04-24T11:09:56.989Z,37.90
2018-04-24T11:12:25.644Z,37.20
2018-04-24T11:14:54.021Z,36.90
2018-04-24T11:17:22.400Z,37.10
2018-04-24T11:19:50.875Z,36.40
2018-04-24T11:22:19.420Z,33.70
2018-04-24T11:24:47.822Z,32.20
2018-04-24T11:27:16.193Z,33.30
2018-04-24T11:29:44.788Z,33.10
2018-04-24T11:32:13.181Z,33.70
2018-04-24T11:34:41.564Z,33.50
2018-04-24T11:37:10.011Z,34.90
2018-04-24T11:39:38.393Z,34.50
2018-04-24T11:42:06.794Z,35.20
2018-04-24T11:44:35.174Z,34.80
2018-04-24T11:47:03.680Z,35.80
2018-04-24T11:49:32.854Z,35.00
2018-04-24T11:52:01.203Z,35.10
2018-04-24T11:54:29.611Z,36.20
2018-04-24T11:56:58.006Z,34.90
2018-04-24T11:59:27.179Z,35.20
2018-04-24T12:01:55.552Z,35.10
2018-04-24T12:04:23.941Z,34.50
2018-04-24T12:06:52.316Z,32.90
2018-04-24T12:09:20.696Z,34.00
2018-04-24T12:11:49.081Z,32.00
2018-04-24T12:14:17.454Z,30.80
2018-04-24T12:16:45.860Z,32.50
2018-04-24T12:19:14.239Z,33.80
2018-04-24T12:21:42.648Z,32.70
2018-04-24T12:24:11.784Z,31.70
2018-04-24T12:26:40.144Z,31.70
2018-04-24T12:29:08.540Z,32.80
2018-04-24T12:31:36.917Z,33.70
2018-04-24T12:34:05.320Z,33.60
2018-04-24T12:36:33.693Z,32.70
2018-04-24T12:39:02.413Z,32.90
2018-04-24T12:41:31.567Z,33.70
2018-04-24T12:43:59.934Z,33.70
2018-04-24T12:46:28.336Z,33.50
2018-04-24T12:48:56.709Z,33.80
2018-04-24T12:51:25.101Z,33.10
2018-04-24T12:53:53.464Z,32.60
2018-04-24T12:56:22.224Z,30.80
2018-04-24T12:58:50.587Z,31.20
2018-04-24T13:01:18.961Z,31.10
2018-04-24T13:03:47.415Z,32.20
2018-04-24T13:06:15.751Z,31.70
2018-04-24T13:08:45.345Z,32.00
2018-04-24T13:11:13.709Z,31.40
2018-04-24T13:13:42.090Z,31.20
2018-04-24T13:16:10.503Z,31.10
2018-04-24T13:18:38.883Z,31.50
2018-04-24T13:21:07.327Z,30.50
2018-04-24T13:23:35.715Z,31.30
2018-04-24T13:26:04.217Z,32.50
2018-04-24T13:28:32.595Z,31.60
2018-04-24T13:31:00.974Z,32.40
2018-04-24T13:33:29.369Z,33.20
2018-04-24T13:35:57.745Z,33.00
2018-04-24T13:38:26.145Z,33.00
2018-04-24T13:40:55.293Z,33.50
2018-04-24T13:43:23.801Z,33.50
2018-04-24T13:45:52.181Z,33.00
2018-04-24T13:48:20.549Z,33.20
2018-04-24T13:50:48.953Z,31.40
2018-04-24T13:53:17.316Z,30.40
2018-04-24T13:55:45.709Z,30.90
2018-04-24T13:58:14.078Z,30.70
2018-04-24T14:00:42.726Z,31.60
2018-04-24T14:03:11.103Z,32.20
2018-04-24T14:05:39.474Z,32.50
2018-04-24T14:08:07.878Z,33.80
2018-04-24T14:10:36.259Z,32.90
2018-04-24T14:13:04.660Z,33.50
2018-04-24T14:15:33.025Z,33.10
2018-04-24T14:18:01.678Z,33.70
2018-04-24T14:20:30.057Z,33.70
2018-04-24T14:22:58.453Z,34.30
2018-04-24T14:25:26.831Z,33.00
2018-04-24T14:27:55.201Z,33.00
2018-04-24T14:30:23.618Z,33.20
2018-04-24T14:32:51.997Z,34.20
2018-04-24T14:35:20.426Z,33.40
2018-04-24T14:37:48.809Z,33.30
2018-04-24T14:40:17.178Z,33.90
2018-04-24T14:42:45.652Z,34.10
2018-04-24T14:45:13.965Z,34.40
2018-04-24T14:47:42.369Z,35.00
2018-04-24T14:50:11.514Z,34.30
2018-04-24T14:52:39.939Z,34.30
2018-04-24T14:55:08.869Z,35.40
2018-04-24T14:57:37.244Z,35.10
2018-04-24T15:00:05.668Z,35.00
2018-04-24T15:02:34.040Z,32.70
2018-04-24T15:05:02.428Z,33.80
2018-04-24T15:07:30.800Z,35.10
2018-04-24T15:09:59.230Z,36.30
2018-04-24T15:12:28.365Z,34.70
2018-04-24T15:14:56.733Z,34.70
2018-04-24T15:17:25.139Z,34.70
2018-04-24T15:19:53.524Z,35.40
2018-04-24T15:22:21.919Z,33.30
2018-04-24T15:24:50.295Z,33.30
2018-04-24T15:27:18.837Z,34.00
2018-04-24T15:29:47.209Z,35.50
2018-04-24T15:32:15.581Z,33.60
2018-04-24T15:34:43.978Z,34.20
2018-04-24T15:37:12.343Z,35.00
2018-04-24T15:39:40.745Z,33.70
2018-04-24T15:42:09.122Z,34.00
2018-04-24T15:44:37.791Z,34.40
2018-04-24T15:47:06.162Z,35.00
2018-04-24T15:49:34.545Z,35.60
2018-04-24T15:52:02.936Z,35.60
2018-04-24T15:54:31.319Z,35.60
2018-04-24T15:56:59.712Z,36.10
2018-04-24T15:59:28.927Z,35.60
2018-04-24T16:01:58.377Z,35.60
2018-04-24T16:04:26.743Z,35.60
2018-04-24T16:06:55.120Z,36.30
2018-04-24T16:09:23.509Z,35.90
2018-04-24T16:11:51.889Z,36.10
2018-04-24T16:14:20.287Z,37.20
2018-04-24T16:16:48.649Z,37.10
2018-04-24T16:19:17.171Z,37.80
2018-04-24T16:21:45.473Z,37.30
2018-04-24T16:24:14.683Z,37.40
2018-04-24T16:26:43.868Z,37.70
2018-04-24T16:29:13.018Z,38.00
2018-04-24T16:31:41.412Z,38.00
2018-04-24T16:34:10.555Z,38.10
2018-04-24T16:36:39.152Z,38.20
2018-04-24T16:39:07.541Z,37.60
2018-04-24T16:41:35.911Z,37.20
2018-04-24T16:44:04.449Z,36.80
2018-04-24T16:46:33.642Z,37.00
2018-04-24T16:49:02.030Z,37.00
2018-04-24T16:51:31.277Z,38.50
2018-04-24T16:53:59.720Z,38.50
2018-04-24T16:56:28.102Z,38.30
2018-04-24T16:58:56.465Z,37.90
2018-04-24T17:01:25.639Z,37.10
2018-04-24T17:03:54.024Z,37.10
2018-04-24T17:06:22.428Z,38.10
2018-04-24T17:08:50.808Z,38.50
2018-04-24T17:11:19.387Z,38.40
2018-04-24T17:13:47.722Z,38.00
2018-04-24T17:16:16.241Z,37.80
2018-04-24T17:18:45.662Z,38.10
2018-04-24T17:21:14.297Z,38.10
2018-04-24T17:23:44.449Z,38.30
2018-04-24T17:26:13.764Z,38.30
2018-04-24T17:28:42.185Z,38.40
2018-04-24T17:31:10.857Z,38.40
2018-04-24T17:33:39.256Z,39.00
2018-04-24T17:36:07.930Z,39.20
2018-04-24T17:38:36.309Z,39.00
2018-04-24T17:41:04.964Z,39.20
2018-04-24T17:43:34.172Z,39.70
2018-04-24T17:46:03.175Z,39.70
2018-04-24T17:48:32.352Z,39.90
2018-04-24T17:51:00.731Z,40.40
2018-04-24T17:53:29.134Z,40.70
2018-04-24T17:55:57.761Z,41.00
2018-04-24T17:58:27.760Z,41.90
2018-04-24T18:00:56.285Z,41.90
2018-04-24T18:03:24.981Z,42.00
2018-04-24T18:05:53.655Z,42.30
2018-04-24T18:08:22.438Z,42.50
2018-04-24T18:10:50.846Z,43.30
2018-04-24T18:13:19.240Z,43.80
2018-04-24T18:15:47.664Z,44.40
2018-04-24T18:18:16.806Z,44.70
2018-04-24T18:20:45.492Z,44.60
2018-04-24T18:23:13.877Z,44.80
2018-04-24T18:25:42.247Z,44.80
2018-04-24T18:28:10.652Z,44.30
2018-04-24T18:30:39.044Z,45.20
2018-04-24T18:33:08.359Z,45.60
2018-04-24T18:35:37.540Z,45.30
2018-04-24T18:38:06.084Z,45.30
2018-04-24T18:40:34.612Z,46.20
2018-04-24T18:43:03.765Z,46.40
2018-04-24T18:45:32.168Z,46.30
2018-04-24T18:48:00.568Z,46.60
2018-04-24T18:50:29.818Z,47.10
2018-04-24T18:52:58.344Z,47.10
2018-04-24T18:55:27.814Z,48.00
2018-04-24T18:57:56.278Z,48.00
2018-04-24T19:00:24.813Z,49.30
2018-04-24T19:02:53.997Z,49.60
2018-04-24T19:05:22.372Z,49.60
2018-04-24T19:07:50.960Z,49.20
2018-04-24T19:10:19.281Z,49.00
2018-04-24T19:12:47.745Z,48.40
2018-04-24T19:15:16.145Z,48.70
2018-04-24T19:17:44.845Z,48.80
2018-04-24T19:20:13.257Z,49.00
2018-04-24T19:22:41.750Z,49.30
2018-04-24T19:25:16.622Z,49.30
2018-04-24T19:27:45.020Z,49.30
2018-04-24T19:30:13.411Z,49.40
2018-04-24T19:32:42.103Z,49.80
2018-04-24T19:35:10.537Z,50.00
2018-04-24T19:37:38.932Z,50.20
2018-04-24T19:40:12.834Z,50.10
2018-04-24T19:42:41.211Z,50.60
2018-04-24T19:45:09.612Z,50.80
2018-04-24T19:47:38.250Z,50.80
2018-04-24T19:50:12.291Z,50.60
2018-04-24T19:52:40.781Z,50.80
2018-04-24T19:55:15.084Z,50.50
2018-04-24T19:57:44.183Z,50.60
2018-04-24T20:00:13.156Z,51.30
2018-04-24T20:02:41.766Z,51.40
2018-04-24T20:05:10.557Z,51.20
2018-04-24T20:07:40.059Z,51.10
2018-04-24T20:10:09.629Z,51.70
2018-04-24T20:12:38.659Z,51.30
2018-04-24T20:15:07.070Z,51.60
2018-04-24T20:17:35.926Z,51.50
2018-04-24T20:20:06.698Z,52.00
2018-04-24T20:22:37.410Z,51.90
2018-04-24T20:25:07.130Z,52.60
2018-04-24T20:27:38.261Z,52.50
2018-04-24T20:30:11.119Z,53.60
2018-04-24T20:32:39.730Z,54.50
2018-04-24T20:35:08.225Z,53.90
2018-04-24T20:37:36.954Z,54.30
2018-04-24T20:40:05.654Z,53.80
2018-04-24T20:42:34.178Z,53.70
2018-04-24T20:45:02.565Z,53.80
2018-04-24T20:47:31.911Z,54.00
2018-04-24T20:50:00.341Z,53.90
2018-04-24T20:52:28.805Z,55.00
2018-04-24T20:54:57.998Z,54.80
2018-04-24T20:57:26.475Z,54.80
2018-04-24T20:59:55.831Z,54.80
2018-04-24T21:02:24.219Z,55.10
2018-04-24T21:04:53.341Z,55.20
2018-04-24T21:07:22.233Z,55.40
2018-04-24T21:09:51.084Z,55.40
2018-04-24T21:12:19.625Z,55.70
2018-04-24T21:14:48.005Z,55.70
2018-04-24T21:17:16.417Z,55.70
2018-04-24T21:19:44.965Z,55.60
2018-04-24T21:22:14.549Z,55.40
2018-04-24T21:24:43.060Z,55.50
2018-04-24T21:27:11.447Z,55.50
2018-04-24T21:29:40.688Z,56.00
2018-04-24T21:32:09.073Z,55.90
2018-04-24T21:34:37.514Z,56.40
2018-04-24T21:37:06.761Z,57.10
2018-04-24T21:39:35.545Z,57.00
2018-04-24T21:42:03.924Z,57.00
2018-04-24T21:44:32.302Z,57.20
2018-04-24T21:47:00.713Z,57.60
2018-04-24T21:49:29.213Z,58.40
2018-04-24T21:51:58.437Z,58.90
2018-04-24T21:54:26.821Z,58.90
2018-04-24T21:56:55.420Z,58.90
2018-04-24T21:59:23.801Z,59.20
2018-04-24T22:01:52.699Z,59.10
2018-04-24T22:04:22.381Z,59.20
2018-04-24T22:06:52.370Z,59.20
2018-04-24T22:09:22.236Z,59.10
2018-04-24T22:11:50.640Z,59.50
2018-04-24T22:14:19.193Z,59.60
2018-04-24T22:16:47.682Z,59.70
2018-04-24T22:19:16.051Z,59.60
2018-04-24T22:21:44.801Z,59.50
2018-04-24T22:24:13.961Z,59.10
2018-04-24T22:26:42.369Z,59.10
2018-04-24T22:29:12.086Z,59.20
2018-04-24T22:31:41.528Z,59.90
2018-04-24T22:34:09.905Z,59.20
2018-04-24T22:36:38.341Z,59.30
2018-04-24T22:39:08.064Z,59.40
2018-04-24T22:41:36.458Z,59.30
2018-04-24T22:44:04.897Z,59.20
2018-04-24T22:46:33.278Z,59.20
2018-04-24T22:49:02.754Z,59.70
2018-04-24T22:51:32.628Z,59.00
2018-04-24T22:54:01.025Z,59.00
2018-04-24T22:56:29.456Z,59.00
2018-04-24T22:58:58.612Z,59.40
2018-04-24T23:01:27.012Z,59.40
2018-04-24T23:03:55.776Z,59.50
2018-04-24T23:06:24.321Z,59.60
2018-04-24T23:08:53.209Z,59.80
2018-04-24T23:11:40.048Z,60.10
2018-04-24T23:14:27.893Z,59.90
2018-04-24T23:17:18.069Z,60.30
2018-04-24T23:20:09.848Z,59.90
2018-04-24T23:22:49.078Z,59.90
2018-04-24T23:25:25.326Z,59.90
2018-04-24T23:28:01.451Z,59.50
2018-04-24T23:30:37.380Z,60.10
2018-04-24T23:33:08.766Z,59.90
2018-04-24T23:35:38.164Z,59.40
2018-04-24T23:38:06.564Z,59.30
2018-04-24T23:40:34.962Z,58.90
2018-04-24T23:43:03.329Z,59.20
2018-04-24T23:45:31.752Z,59.10
2018-04-24T23:48:00.125Z,59.10
2018-04-24T23:50:28.527Z,59.00
2018-04-24T23:52:56.903Z,59.10
2018-04-24T23:55:25.340Z,59.30
2018-04-24T23:57:53.721Z,59.30
